VRMM/MLE METAR and TAF weather

Enter ICAO airport designator
Station Type Date Time Source
VRMM METAR 2020/04/04 11:00 UTC NOAA

VRMM 041100Z 07009KT 9999 FEW018 32/25 Q1009 NOSIG


Station Type Date Time Source
VRMM Decoded METAR 2020/04/04 11:00 UTC NOAA

Male, Maldives (VRMM) 04-12N 073-32E 2M
Apr 04, 2020 - 07:00 AM EDT / 2020.04.04 1100 UTC
Wind: from the ENE (070 degrees) at 10 MPH (9 KT):0
Visibility: greater than 7 mile(s):0
Sky conditions: mostly clear
Temperature: 89 F (32 C)
Heat index: 100.6 F (38.1 C):1
Dew Point: 77 F (25 C)
Relative Humidity: 66%
Pressure (altimeter): 29.80 in. Hg (1009 hPa)
ob: VRMM 041100Z 07009KT 9999 FEW018 32/25 Q1009 NOSIG
cycle: 11

Station Type Date Time Source
VRMM TAF 2020/04/04 12:12 UTC NOAA

TAF TAF VRMM 041100Z 0412/0518 07010KT 9999 FEW019

Example: see airport list